Time;durP1;ratioP1;P1;durP2;ratioP2;P2;SDS_P1;SDS_P2;PMS_P1;PMS_P2;Temp;Humidity;BMP_temperature;BMP_pressure;BME280_temperature;BME280_humidity;BME280_pressure;Samples;Min_cycle;Max_cycle;Signal;HPM_P1;HPM_P2
2023/01/17 00:02:00;;;;;;;1.20;1.20;;;17.10;65.90;;;;;;5086190;27;43383;-71
2023/01/17 00:10:03;;;;;;;1.40;1.30;;;17.30;65.20;;;;;;5098470;27;43505;-71
2023/01/17 00:12:31;;;;;;;1.30;1.30;;;17.30;64.80;;;;;;5101612;27;43398;-72
2023/01/17 00:14:59;;;;;;;1.10;1.10;;;17.30;64.80;;;;;;5103304;27;43417;-71
2023/01/17 00:17:28;;;;;;;1.00;1.00;;;17.30;64.90;;;;;;5080712;27;45379;-71
2023/01/17 01:35:31;;;;;;;1.10;1.10;;;17.10;65.50;;;;;;5092152;27;43482;-71
2023/01/17 01:37:59;;;;;;;0.90;0.90;;;17.00;65.60;;;;;;5097502;27;43438;-71
2023/01/17 01:40:28;;;;;;;1.00;1.00;;;17.10;65.60;;;;;;5100089;27;43415;-71
2023/01/17 01:42:56;;;;;;;1.10;1.10;;;17.10;65.60;;;;;;5099012;27;43624;-71
2023/01/17 01:45:25;;;;;;;1.10;1.10;;;17.00;65.50;;;;;;5080261;27;44736;-72
2023/01/17 01:47:54;;;;;;;1.10;1.10;;;17.00;65.60;;;;;;5083192;27;43460;-72
2023/01/17 01:50:23;;;;;;;1.00;1.00;;;17.00;65.70;;;;;;5083887;27;43506;-71
2023/01/17 01:52:52;;;;;;;1.13;1.13;;;17.00;65.80;;;;;;5101412;27;43835;-72
2023/01/17 01:55:21;;;;;;;1.23;1.23;;;17.00;65.70;;;;;;5100054;27;43934;-70
2023/01/17 01:57:52;;;;;;;1.10;1.10;;;17.10;65.40;;;;;;5081144;27;43442;-71
2023/01/17 02:00:23;;;;;;;1.20;1.20;;;17.20;65.10;;;;;;5099766;27;43425;-70
2023/01/17 02:02:51;;;;;;;1.00;1.00;;;17.20;65.10;;;;;;5098239;27;43743;-70
2023/01/17 02:05:20;;;;;;;1.10;1.10;;;17.20;65.10;;;;;;5098525;27;43432;-70
2023/01/17 02:07:50;;;;;;;1.13;1.13;;;17.20;65.40;;;;;;5097002;27;43441;-70
2023/01/17 02:10:18;;;;;;;1.37;1.37;;;17.10;65.30;;;;;;5100453;27;43388;-72
2023/01/17 02:12:46;;;;;;;1.07;1.07;;;17.20;65.30;;;;;;5091264;27;43603;-71
2023/01/17 02:15:15;;;;;;;1.10;1.10;;;17.10;66.10;;;;;;5103821;27;43462;-70
2023/01/17 02:17:48;;;;;;;1.10;1.10;;;17.10;65.30;;;;;;5097719;27;43429;-72
2023/01/17 02:20:34;;;;;;;1.20;1.20;;;17.10;65.40;;;;;;5082667;27;43790;-72
2023/01/17 02:23:31;;;;;;;1.13;1.13;;;17.00;65.40;;;;;;5073402;27;45072;-71
2023/01/17 02:26:14;;;;;;;1.23;1.23;;;17.00;65.50;;;;;;5076733;28;45080;-71
2023/01/17 02:28:49;;;;;;;1.13;1.13;;;17.00;65.50;;;;;;5085277;27;43874;-71
2023/01/17 02:31:20;;;;;;;1.17;1.17;;;17.10;65.60;;;;;;5099229;27;43846;-72
2023/01/17 02:33:51;;;;;;;1.20;1.20;;;17.00;65.60;;;;;;5102400;27;43567;-71
2023/01/17 02:36:20;;;;;;;1.07;1.07;;;17.00;65.70;;;;;;5100455;27;43441;-70
2023/01/17 02:38:51;;;;;;;1.30;1.30;;;17.00;65.80;;;;;;5098391;27;43513;-71
2023/01/17 02:41:21;;;;;;;1.00;1.00;;;17.00;65.80;;;;;;5100529;27;43414;-72
2023/01/17 02:43:49;;;;;;;1.10;1.10;;;17.10;65.60;;;;;;5084568;27;45884;-71
2023/01/17 02:46:18;;;;;;;1.00;1.00;;;17.20;65.30;;;;;;5102583;27;43328;-71
2023/01/17 02:48:46;;;;;;;1.20;1.20;;;17.20;65.00;;;;;;5106925;27;43402;-70
2023/01/17 02:51:27;;;;;;;1.20;1.20;;;17.20;65.10;;;;;;5104736;27;43985;-71
2023/01/17 02:54:07;;;;;;;1.20;1.20;;;17.20;65.20;;;;;;5103591;27;43943;-72
2023/01/17 02:56:43;;;;;;;1.00;1.00;;;17.10;65.30;;;;;;5085756;27;43568;-71
2023/01/17 02:59:15;;;;;;;1.30;1.30;;;17.10;65.20;;;;;;5099297;27;43368;-71
2023/01/17 03:01:48;;;;;;;1.03;1.03;;;17.10;65.30;;;;;;5103590;27;43472;-71
2023/01/17 03:04:19;;;;;;;1.20;1.20;;;17.10;65.30;;;;;;5099185;27;43697;-70
2023/01/17 03:06:48;;;;;;;1.23;1.23;;;17.10;65.40;;;;;;5102239;27;43438;-71
2023/01/17 03:09:16;;;;;;;1.10;1.10;;;17.00;65.40;;;;;;5104469;27;43537;-71
2023/01/17 03:11:44;;;;;;;1.20;1.20;;;17.00;65.60;;;;;;5108653;27;43403;-72
2023/01/17 03:14:12;;;;;;;1.30;1.30;;;17.00;65.40;;;;;;5093874;27;43867;-71
2023/01/17 03:16:40;;;;;;;1.10;1.10;;;17.00;65.50;;;;;;5101378;27;43393;-71
2023/01/17 03:19:09;;;;;;;1.00;1.00;;;17.00;65.60;;;;;;5080400;27;43424;-70
2023/01/17 03:21:37;;;;;;;1.10;1.10;;;17.00;65.60;;;;;;5105047;27;43592;-72
2023/01/17 03:24:06;;;;;;;1.07;1.07;;;17.00;65.60;;;;;;5105301;27;44020;-71
2023/01/17 03:26:34;;;;;;;1.30;1.30;;;17.00;65.80;;;;;;5095058;27;43414;-71
2023/01/17 03:29:02;;;;;;;1.20;1.20;;;17.00;65.80;;;;;;5100364;27;43401;-70
2023/01/17 03:31:30;;;;;;;1.10;1.10;;;17.10;65.50;;;;;;5108638;27;43382;-71
2023/01/17 03:33:57;;;;;;;1.07;1.07;;;17.10;65.10;;;;;;5100279;27;43892;-71
2023/01/17 03:36:27;;;;;;;1.33;1.33;;;17.20;65.00;;;;;;5102390;27;43412;-71
2023/01/17 03:38:55;;;;;;;1.13;1.13;;;17.20;65.10;;;;;;5100976;27;43409;-71
2023/01/17 03:41:22;;;;;;;1.00;1.00;;;17.20;65.30;;;;;;5098532;27;43554;-73
2023/01/17 03:43:50;;;;;;;1.10;1.10;;;17.10;65.30;;;;;;5100060;27;43907;-71
2023/01/17 03:46:19;;;;;;;1.10;1.10;;;17.10;65.30;;;;;;5104045;27;43610;-71
2023/01/17 03:48:47;;;;;;;1.10;1.10;;;17.10;65.30;;;;;;5103258;27;43567;-71
2023/01/17 03:51:15;;;;;;;0.93;0.93;;;17.10;65.30;;;;;;5106586;27;43477;-71
2023/01/17 03:53:45;;;;;;;1.17;1.17;;;17.00;65.20;;;;;;5105305;27;43999;-71
2023/01/17 03:56:13;;;;;;;1.10;1.10;;;17.00;65.30;;;;;;5100726;27;43427;-70
2023/01/17 03:58:41;;;;;;;1.17;1.17;;;17.00;65.50;;;;;;5103021;27;44065;-71
2023/01/17 04:01:09;;;;;;;1.00;1.00;;;17.00;65.60;;;;;;5108103;27;43489;-71
2023/01/17 04:03:37;;;;;;;1.00;1.00;;;17.00;65.50;;;;;;5101007;27;44864;-70
2023/01/17 04:06:05;;;;;;;1.10;1.10;;;17.00;65.50;;;;;;5101061;27;43451;-71
2023/01/17 04:08:33;;;;;;;1.10;1.10;;;17.00;65.60;;;;;;5083143;27;43845;-71
2023/01/17 04:11:03;;;;;;;1.20;1.20;;;17.00;65.60;;;;;;5099239;27;43447;-70
2023/01/17 04:13:30;;;;;;;1.20;1.20;;;16.90;65.60;;;;;;5103001;27;43842;-72
2023/01/17 04:15:58;;;;;;;1.20;1.20;;;16.90;65.70;;;;;;5103450;27;43381;-72
2023/01/17 04:18:26;;;;;;;1.10;1.10;;;17.00;66.40;;;;;;5103368;27;43331;-71
2023/01/17 04:20:54;;;;;;;1.20;1.20;;;17.10;65.40;;;;;;5104352;27;43449;-71
2023/01/17 04:23:22;;;;;;;1.30;1.30;;;17.20;65.10;;;;;;5103429;27;44034;-71
2023/01/17 04:25:50;;;;;;;1.20;1.20;;;17.20;65.00;;;;;;5098013;27;43405;-72
2023/01/17 04:28:19;;;;;;;1.00;1.00;;;17.20;65.00;;;;;;5099010;27;43435;-71
2023/01/17 04:30:47;;;;;;;1.00;1.00;;;17.10;65.10;;;;;;5079431;27;43577;-71
2023/01/17 04:33:15;;;;;;;1.10;1.10;;;17.10;65.20;;;;;;5100915;27;43936;-71
2023/01/17 04:35:43;;;;;;;1.00;1.00;;;17.10;65.20;;;;;;5104325;27;43500;-71
2023/01/17 04:38:11;;;;;;;1.00;1.00;;;17.10;65.30;;;;;;5096000;27;43453;-71
2023/01/17 04:40:38;;;;;;;1.00;1.00;;;17.00;65.30;;;;;;5088965;27;43483;-73
2023/01/17 04:43:06;;;;;;;1.00;1.00;;;17.00;65.20;;;;;;5093740;27;43911;-71
2023/01/17 04:45:37;;;;;;;1.00;1.00;;;17.00;65.40;;;;;;5100847;27;44001;-71
2023/01/17 04:48:05;;;;;;;1.20;1.20;;;17.00;65.60;;;;;;5103569;27;43427;-70
2023/01/17 04:50:33;;;;;;;1.00;1.00;;;17.00;65.40;;;;;;5105238;27;43402;-72
2023/01/17 04:53:01;;;;;;;1.00;1.00;;;17.00;65.50;;;;;;5082980;27;45395;-71
2023/01/17 04:55:29;;;;;;;1.00;1.00;;;17.00;65.50;;;;;;5101723;27;43981;-73
2023/01/17 04:57:57;;;;;;;1.20;1.20;;;16.90;65.50;;;;;;5099962;27;43406;-71
2023/01/17 05:00:25;;;;;;;1.30;1.30;;;17.00;65.70;;;;;;5081496;27;43581;-71
2023/01/17 05:02:54;;;;;;;1.37;1.27;;;16.90;65.70;;;;;;5105485;27;43822;-70
2023/01/17 05:05:22;;;;;;;2.13;1.93;;;16.90;65.70;;;;;;5100447;27;43342;-70
2023/01/17 05:07:54;;;;;;;1.97;1.87;;;17.00;65.40;;;;;;5101533;27;43426;-71
2023/01/17 05:10:21;;;;;;;3.07;2.13;;;17.00;65.20;;;;;;5103072;27;43828;-71
2023/01/17 05:12:55;;;;;;;2.40;1.90;;;17.10;65.30;;;;;;5100951;27;43944;-71
2023/01/17 05:15:24;;;;;;;2.30;2.10;;;17.10;65.30;;;;;;5100636;27;43472;-71
2023/01/17 05:17:53;;;;;;;2.40;2.17;;;17.00;65.20;;;;;;5103431;27;43498;-71
2023/01/17 05:20:22;;;;;;;3.13;2.80;;;17.00;65.40;;;;;;5094395;27;44065;-70
2023/01/17 05:22:54;;;;;;;3.70;2.63;;;17.00;65.20;;;;;;5095920;27;43926;-70
2023/01/17 05:25:22;;;;;;;3.03;2.53;;;17.00;65.20;;;;;;5090023;27;43387;-72
2023/01/17 05:27:50;;;;;;;4.47;2.97;;;17.00;65.40;;;;;;5081080;27;43438;-72
2023/01/17 05:30:19;;;;;;;4.10;2.90;;;17.00;65.40;;;;;;5093595;27;43953;-72
2023/01/17 05:32:48;;;;;;;4.70;3.03;;;16.90;65.40;;;;;;5089907;27;43943;-71
2023/01/17 05:35:18;;;;;;;6.33;3.07;;;16.90;65.50;;;;;;5097287;27;43984;-70
2023/01/17 05:37:47;;;;;;;4.93;3.27;;;17.00;65.70;;;;;;5101428;27;43367;-70
2023/01/17 05:40:16;;;;;;;4.97;3.13;;;17.00;65.30;;;;;;5072569;27;43625;-71
2023/01/17 05:42:46;;;;;;;4.83;3.03;;;17.00;65.10;;;;;;5087864;27;43715;-72
2023/01/17 05:45:15;;;;;;;5.93;3.47;;;17.10;65.20;;;;;;5078666;27;44968;-71
2023/01/17 05:47:43;;;;;;;3.10;2.80;;;17.00;65.20;;;;;;5097000;27;43413;-70
2023/01/17 05:50:12;;;;;;;5.53;3.17;;;17.00;65.20;;;;;;5100519;27;43900;-71
2023/01/17 05:52:41;;;;;;;5.17;3.20;;;17.00;64.70;;;;;;5077451;27;45821;-71
2023/01/17 05:55:09;;;;;;;4.00;2.80;;;17.00;64.80;;;;;;5091774;27;43912;-71
2023/01/17 05:57:38;;;;;;;5.20;3.47;;;17.00;64.90;;;;;;5101923;27;43398;-71
2023/01/17 06:00:07;;;;;;;4.43;3.20;;;17.00;64.90;;;;;;5096058;27;43482;-71
2023/01/17 06:02:35;;;;;;;4.13;2.90;;;16.90;65.10;;;;;;5092591;27;43889;-72
2023/01/17 06:05:03;;;;;;;4.90;3.33;;;16.90;65.10;;;;;;5102254;27;43509;-71
2023/01/17 06:07:31;;;;;;;6.50;3.57;;;16.90;65.10;;;;;;5104125;27;44007;-71
2023/01/17 06:10:00;;;;;;;7.17;3.70;;;16.90;65.40;;;;;;5104481;27;43581;-73
2023/01/17 06:12:28;;;;;;;6.97;3.20;;;17.00;65.30;;;;;;5106346;27;43817;-71
2023/01/17 06:14:56;;;;;;;5.67;3.57;;;17.10;64.80;;;;;;5100402;27;43440;-71
2023/01/17 06:17:24;;;;;;;5.43;3.30;;;17.10;64.80;;;;;;5105438;27;43383;-71
2023/01/17 06:19:52;;;;;;;4.23;3.30;;;17.10;64.90;;;;;;5104183;27;44014;-71
2023/01/17 06:22:20;;;;;;;4.37;3.00;;;17.10;65.00;;;;;;5103405;27;43935;-71
2023/01/17 06:24:48;;;;;;;5.67;3.43;;;17.00;65.10;;;;;;5100668;27;43451;-70
2023/01/17 06:27:17;;;;;;;5.70;3.70;;;17.00;64.90;;;;;;5078589;27;43404;-71
2023/01/17 06:29:45;;;;;;;2.97;2.67;;;17.00;65.00;;;;;;5084971;27;43423;-71
2023/01/17 06:32:13;;;;;;;4.97;2.97;;;17.00;65.10;;;;;;5081864;27;45277;-70
2023/01/17 06:34:41;;;;;;;4.93;3.40;;;17.00;65.10;;;;;;5099363;27;44011;-71
2023/01/17 06:37:10;;;;;;;5.90;3.60;;;17.00;65.30;;;;;;5103077;27;43542;-72
2023/01/17 06:39:38;;;;;;;4.60;3.40;;;17.00;65.20;;;;;;5098716;27;43590;-72
2023/01/17 06:42:05;;;;;;;4.00;2.97;;;17.00;65.20;;;;;;5090427;27;43865;-71
2023/01/17 06:44:35;;;;;;;3.73;2.87;;;17.00;65.30;;;;;;5101213;27;43365;-71
2023/01/17 06:47:03;;;;;;;3.60;3.30;;;17.00;65.20;;;;;;5105028;27;43443;-71
2023/01/17 06:49:30;;;;;;;5.53;3.17;;;16.90;65.10;;;;;;5105858;27;43429;-71
2023/01/17 06:51:58;;;;;;;4.60;3.27;;;16.90;65.30;;;;;;5081024;27;45662;-71
2023/01/17 06:54:26;;;;;;;3.70;3.10;;;16.90;65.30;;;;;;5101540;27;43405;-71
2023/01/17 06:56:54;;;;;;;4.83;3.53;;;16.90;65.50;;;;;;5104616;27;43431;-71
2023/01/17 06:59:22;;;;;;;3.30;3.00;;;17.00;65.40;;;;;;5080419;27;43855;-72
2023/01/17 07:01:51;;;;;;;5.70;3.03;;;17.10;65.20;;;;;;5100853;27;43949;-71
2023/01/17 07:04:19;;;;;;;4.40;3.03;;;17.10;64.70;;;;;;5108649;27;43424;-70
2023/01/17 07:06:47;;;;;;;3.40;3.10;;;17.10;64.60;;;;;;5105552;27;43388;-71
2023/01/17 07:09:15;;;;;;;3.43;3.00;;;17.10;64.80;;;;;;5102552;27;43586;-70
2023/01/17 07:11:44;;;;;;;4.03;3.17;;;17.10;65.00;;;;;;5081127;27;44119;-71
2023/01/17 07:14:13;;;;;;;4.17;3.23;;;17.10;65.00;;;;;;5076227;27;44862;-71
2023/01/17 07:16:44;;;;;;;3.30;3.00;;;17.10;65.00;;;;;;5085848;27;43884;-72
2023/01/17 07:19:13;;;;;;;3.57;3.00;;;17.10;65.10;;;;;;5097564;27;43406;-71
2023/01/17 07:21:41;;;;;;;5.80;3.40;;;17.00;65.10;;;;;;5098596;27;43847;-72
2023/01/17 07:24:10;;;;;;;3.77;3.10;;;17.00;65.30;;;;;;5099419;27;44139;-70
2023/01/17 07:26:39;;;;;;;4.13;2.83;;;17.00;65.30;;;;;;5102615;27;43382;-72
2023/01/17 07:29:07;;;;;;;3.67;3.33;;;17.00;65.20;;;;;;5085373;27;43960;-71
2023/01/17 07:31:36;;;;;;;2.97;2.73;;;17.00;65.20;;;;;;5099457;27;43859;-71
2023/01/17 07:34:04;;;;;;;3.93;3.13;;;17.00;65.30;;;;;;5096468;27;43411;-70
2023/01/17 07:36:34;;;;;;;3.07;2.70;;;16.90;65.30;;;;;;5099978;27;43959;-71
2023/01/17 07:39:02;;;;;;;4.20;2.93;;;17.00;65.40;;;;;;5098800;27;43458;-72
2023/01/17 07:41:33;;;;;;;3.30;3.00;;;16.90;65.40;;;;;;5095021;27;44025;-71
2023/01/17 07:44:04;;;;;;;4.00;2.70;;;16.90;65.60;;;;;;5085673;27;44595;-71
2023/01/17 07:46:32;;;;;;;3.57;3.10;;;17.00;65.50;;;;;;5101292;27;43417;-72
2023/01/17 07:49:00;;;;;;;3.23;2.97;;;17.10;65.30;;;;;;5095161;27;43692;-72
2023/01/17 07:51:28;;;;;;;4.80;2.97;;;17.10;64.70;;;;;;5080402;27;45616;-70
2023/01/17 07:53:58;;;;;;;3.53;3.00;;;17.20;64.70;;;;;;5083413;28;44968;-71
2023/01/17 07:56:26;;;;;;;3.63;3.07;;;17.20;64.80;;;;;;5076763;27;44103;-70
2023/01/17 07:58:53;;;;;;;3.30;3.00;;;17.10;65.00;;;;;;5107151;27;43467;-71
2023/01/17 08:01:21;;;;;;;3.20;2.97;;;17.10;64.90;;;;;;5102493;27;43796;-72
2023/01/17 08:03:53;;;;;;;3.20;2.90;;;17.10;64.90;;;;;;5101873;27;43509;-70
2023/01/17 08:06:22;;;;;;;3.30;3.00;;;17.10;65.00;;;;;;5098876;27;43402;-72
2023/01/17 08:08:50;;;;;;;3.97;2.93;;;17.10;65.10;;;;;;5102096;27;43599;-71
2023/01/17 08:11:19;;;;;;;3.10;2.80;;;17.10;65.20;;;;;;5104053;27;43780;-70
2023/01/17 08:13:47;;;;;;;3.20;2.90;;;17.00;65.20;;;;;;5102684;27;43434;-71
2023/01/17 08:16:15;;;;;;;3.30;3.03;;;17.00;65.20;;;;;;5100773;27;43364;-71
2023/01/17 08:18:43;;;;;;;3.40;3.10;;;17.00;65.30;;;;;;5103638;27;43415;-70
2023/01/17 08:21:12;;;;;;;3.00;2.80;;;17.00;65.20;;;;;;5099319;27;43919;-71
2023/01/17 08:23:40;;;;;;;3.93;2.90;;;17.00;65.20;;;;;;5102263;27;43514;-70
2023/01/17 08:26:08;;;;;;;3.27;2.90;;;17.00;65.20;;;;;;5101898;27;43470;-70
2023/01/17 08:28:38;;;;;;;3.03;2.83;;;17.00;65.40;;;;;;5108488;27;43532;-70
2023/01/17 08:31:09;;;;;;;3.53;2.83;;;16.90;65.40;;;;;;5101201;27;43615;-70
2023/01/17 08:33:37;;;;;;;2.73;2.53;;;17.00;65.20;;;;;;5095247;27;43982;-71
2023/01/17 08:36:05;;;;;;;2.90;2.70;;;17.00;65.40;;;;;;5098052;27;43935;-71
2023/01/17 08:38:33;;;;;;;3.10;2.80;;;17.00;65.30;;;;;;5095654;27;43403;-70
2023/01/17 08:41:01;;;;;;;3.07;2.77;;;17.00;65.40;;;;;;5090401;27;44161;-71
2023/01/17 08:43:29;;;;;;;3.53;3.23;;;17.00;65.40;;;;;;5071890;27;44814;-73
2023/01/17 08:45:58;;;;;;;3.93;3.10;;;17.00;65.60;;;;;;5072096;27;43371;-72
2023/01/17 08:48:26;;;;;;;2.97;2.77;;;17.00;65.70;;;;;;5100249;27;43443;-72
2023/01/17 08:50:54;;;;;;;2.83;2.63;;;17.00;65.30;;;;;;5099785;27;43897;-71
2023/01/17 08:53:22;;;;;;;3.23;3.03;;;17.10;65.00;;;;;;5097195;27;43394;-71
2023/01/17 08:55:57;;;;;;;2.63;2.53;;;17.20;64.70;;;;;;5103139;27;43816;-72
2023/01/17 08:58:26;;;;;;;3.13;2.93;;;17.20;64.70;;;;;;5073021;27;43570;-71
2023/01/17 09:01:01;;;;;;;3.17;2.90;;;17.20;64.90;;;;;;5104939;27;43615;-72
2023/01/17 09:03:30;;;;;;;2.80;2.60;;;17.10;64.90;;;;;;5104488;27;43995;-72
2023/01/17 09:06:02;;;;;;;2.57;2.47;;;17.10;64.80;;;;;;5098328;27;43401;-71
2023/01/17 09:08:30;;;;;;;2.60;2.40;;;17.10;65.00;;;;;;5079155;27;43561;-70
2023/01/17 09:10:58;;;;;;;2.53;2.33;;;17.10;65.00;;;;;;5103382;27;43620;-72
2023/01/17 09:13:26;;;;;;;2.90;2.77;;;17.10;65.20;;;;;;5096818;27;43403;-71
2023/01/17 09:15:56;;;;;;;2.70;2.50;;;17.00;65.20;;;;;;5100228;27;44070;-71
2023/01/17 09:18:26;;;;;;;3.17;2.97;;;17.00;65.20;;;;;;5104247;27;43321;-72
2023/01/17 09:20:54;;;;;;;2.70;2.50;;;17.00;65.20;;;;;;5099742;27;44205;-71
2023/01/17 09:23:22;;;;;;;2.73;2.63;;;17.00;65.30;;;;;;5099641;27;43399;-71
2023/01/17 09:25:53;;;;;;;2.97;2.77;;;17.00;65.20;;;;;;5098699;27;43441;-71
2023/01/17 09:28:21;;;;;;;2.90;2.70;;;17.00;65.30;;;;;;5102730;27;43455;-71
2023/01/17 09:30:49;;;;;;;2.63;2.43;;;17.00;65.40;;;;;;5086711;27;45931;-71
2023/01/17 09:33:17;;;;;;;2.80;2.60;;;16.90;65.40;;;;;;5098941;27;43472;-71
2023/01/17 09:35:46;;;;;;;2.83;2.63;;;16.90;65.40;;;;;;5104333;27;43930;-71
2023/01/17 09:38:14;;;;;;;2.90;2.70;;;16.90;65.40;;;;;;5100145;27;43494;-70
2023/01/17 09:40:44;;;;;;;2.20;2.10;;;17.00;65.50;;;;;;5096909;27;43943;-71
2023/01/17 09:43:16;;;;;;;3.03;2.83;;;16.90;66.10;;;;;;5072958;27;44637;-70
2023/01/17 09:45:44;;;;;;;2.67;2.57;;;16.90;65.40;;;;;;5100402;27;43451;-69
2023/01/17 09:48:16;;;;;;;2.70;2.60;;;16.90;65.50;;;;;;5099685;27;43445;-71
2023/01/17 09:50:47;;;;;;;2.70;2.57;;;16.90;65.60;;;;;;5101794;27;43906;-70
2023/01/17 09:53:17;;;;;;;2.80;2.70;;;16.90;65.60;;;;;;5085087;27;44991;-71
2023/01/17 09:55:48;;;;;;;2.90;2.70;;;17.00;66.00;;;;;;5101547;27;43440;-71
2023/01/17 09:58:18;;;;;;;2.43;2.33;;;17.20;65.10;;;;;;5077997;27;43931;-72
2023/01/17 10:00:57;;;;;;;2.93;2.77;;;17.20;64.70;;;;;;5096031;27;43935;-72
2023/01/17 10:03:50;;;;;;;2.40;2.30;;;17.20;64.80;;;;;;5079098;27;44456;-70
2023/01/17 10:06:42;;;;;;;2.60;2.40;;;17.20;64.80;;;;;;5071825;27;43480;-71
2023/01/17 10:09:24;;;;;;;2.63;2.50;;;17.20;65.00;;;;;;5099940;27;43437;-71
2023/01/17 10:12:06;;;;;;;2.40;2.30;;;17.10;64.90;;;;;;5098195;27;43890;-71
2023/01/17 10:14:48;;;;;;;2.30;2.20;;;17.10;65.00;;;;;;5094125;27;43490;-71
2023/01/17 10:17:19;;;;;;;2.67;2.47;;;17.10;65.20;;;;;;5088702;27;43516;-71
2023/01/17 10:19:57;;;;;;;2.57;2.47;;;17.00;65.20;;;;;;5081534;27;43595;-71
2023/01/17 10:22:32;;;;;;;2.20;2.10;;;17.00;65.20;;;;;;5101931;27;43578;-71
2023/01/17 10:25:31;;;;;;;2.40;2.30;;;17.00;65.20;;;;;;5083977;27;44687;-70
2023/01/17 10:28:00;;;;;;;2.17;2.07;;;17.00;65.40;;;;;;5103992;27;43418;-70
2023/01/17 10:30:32;;;;;;;2.30;2.20;;;17.00;65.30;;;;;;5095752;27;43886;-71
2023/01/17 10:33:01;;;;;;;2.40;2.30;;;17.00;65.40;;;;;;5097602;27;43634;-71
2023/01/17 10:35:31;;;;;;;2.57;2.47;;;17.00;65.50;;;;;;5083072;27;44764;-72
2023/01/17 10:38:00;;;;;;;2.03;1.93;;;16.90;65.50;;;;;;5095165;27;43470;-71
2023/01/17 10:40:33;;;;;;;2.50;2.40;;;16.90;65.50;;;;;;5082512;27;43497;-71
2023/01/17 10:43:02;;;;;;;2.23;2.13;;;17.00;65.60;;;;;;5090996;27;43953;-72
2023/01/17 10:45:31;;;;;;;2.73;2.63;;;17.00;65.60;;;;;;5100767;27;43565;-70
2023/01/17 10:48:02;;;;;;;2.20;2.10;;;16.90;66.30;;;;;;5081325;27;43505;-72
2023/01/17 10:50:32;;;;;;;2.23;2.13;;;16.90;65.60;;;;;;5098282;27;43402;-71
2023/01/17 10:53:03;;;;;;;2.30;2.20;;;16.90;65.60;;;;;;5102417;27;43892;-70
2023/01/17 10:55:34;;;;;;;2.20;2.10;;;16.90;65.80;;;;;;5081732;27;44820;-71
2023/01/17 10:58:02;;;;;;;2.40;2.30;;;17.00;65.60;;;;;;5078784;27;43447;-71
2023/01/17 11:00:44;;;;;;;2.17;2.07;;;17.10;65.30;;;;;;5102193;27;43514;-71
2023/01/17 11:03:12;;;;;;;2.37;2.27;;;17.20;65.00;;;;;;5091071;27;43915;-71
2023/01/17 11:05:41;;;;;;;2.20;2.10;;;17.20;64.90;;;;;;5090600;27;44002;-72
2023/01/17 11:08:12;;;;;;;2.83;2.63;;;17.20;65.00;;;;;;5092618;27;43433;-72
2023/01/17 11:10:45;;;;;;;2.40;2.30;;;17.10;65.00;;;;;;5093181;27;43335;-72
2023/01/17 11:13:28;;;;;;;2.27;2.17;;;17.10;65.00;;;;;;5105358;27;43964;-70
2023/01/17 11:15:58;;;;;;;1.90;1.80;;;17.10;65.10;;;;;;5104637;27;43371;-71
2023/01/17 11:18:27;;;;;;;2.40;2.20;;;17.10;65.30;;;;;;5101351;27;43378;-71
2023/01/17 11:21:10;;;;;;;2.00;1.90;;;17.00;65.20;;;;;;5104161;27;43470;-70
2023/01/17 11:23:40;;;;;;;1.90;1.87;;;17.00;65.20;;;;;;5084910;27;45489;-70
2023/01/17 11:26:10;;;;;;;2.37;2.27;;;17.00;65.60;;;;;;5082888;27;44582;-71
2023/01/17 11:28:39;;;;;;;1.90;1.90;;;17.00;65.50;;;;;;5085795;27;43463;-72
2023/01/17 11:31:20;;;;;;;2.07;1.97;;;17.00;65.50;;;;;;5103267;27;43431;-71
2023/01/17 11:33:54;;;;;;;1.73;1.73;;;17.00;66.30;;;;;;5093182;27;44067;-70
2023/01/17 11:36:23;;;;;;;1.90;1.90;;;16.90;65.50;;;;;;5103224;27;43418;-72
2023/01/17 11:39:01;;;;;;;2.13;2.03;;;16.90;65.60;;;;;;5098634;27;44126;-71
2023/01/17 11:41:33;;;;;;;2.17;2.07;;;16.90;65.80;;;;;;5099498;27;43750;-70
2023/01/17 11:44:01;;;;;;;2.07;1.97;;;16.90;65.60;;;;;;5097613;27;43842;-72
2023/01/17 11:46:29;;;;;;;1.90;1.80;;;16.90;65.70;;;;;;5101185;27;44046;-70
2023/01/17 11:48:58;;;;;;;2.07;2.07;;;16.90;65.70;;;;;;5085451;27;43399;-70
2023/01/17 11:51:31;;;;;;;1.87;1.77;;;16.90;65.60;;;;;;5102070;27;43505;-71
2023/01/17 11:54:15;;;;;;;2.20;2.10;;;16.90;65.70;;;;;;5104859;27;43716;-72
2023/01/17 11:56:45;;;;;;;2.10;2.00;;;16.90;65.80;;;;;;5101192;27;43392;-70
2023/01/17 11:59:32;;;;;;;1.87;1.80;;;16.90;65.90;;;;;;5103370;27;43408;-70
2023/01/17 12:02:30;;;;;;;2.20;2.10;;;17.00;65.70;;;;;;5083367;28;43545;-72
2023/01/17 12:05:04;;;;;;;1.97;1.87;;;17.10;65.30;;;;;;5067580;27;44127;-71
2023/01/17 12:07:34;;;;;;;2.20;2.10;;;17.10;65.00;;;;;;5086377;27;43463;-70
2023/01/17 12:10:07;;;;;;;1.83;1.83;;;17.10;65.10;;;;;;5105973;27;43414;-71
2023/01/17 12:15:38;;;;;;;1.97;1.90;;;17.10;65.30;;;;;;5104077;27;43911;-71
2023/01/17 12:18:23;;;;;;;1.90;1.90;;;17.10;65.30;;;;;;5090238;27;43472;-70
2023/01/17 12:20:55;;;;;;;1.60;1.60;;;17.00;65.20;;;;;;5081782;27;43428;-70
2023/01/17 12:23:53;;;;;;;2.13;2.10;;;17.00;65.40;;;;;;5083521;27;43571;-71
2023/01/17 12:26:35;;;;;;;2.10;2.00;;;17.00;65.50;;;;;;5094112;27;45059;-71
2023/01/17 12:29:33;;;;;;;1.50;1.50;;;16.90;65.60;;;;;;5083643;27;44578;-72
2023/01/17 12:32:35;;;;;;;1.83;1.83;;;16.90;65.60;;;;;;5091602;27;43362;-71
2023/01/17 12:35:08;;;;;;;1.90;1.90;;;16.90;65.70;;;;;;5046035;28;44102;-72
2023/01/17 12:37:37;;;;;;;1.70;1.70;;;17.00;65.80;;;;;;5046973;28;43605;-72
2023/01/17 12:40:17;;;;;;;1.70;1.70;;;16.90;65.80;;;;;;5047179;28;43495;-71
2023/01/17 12:42:49;;;;;;;1.80;1.80;;;16.90;65.80;;;;;;5043631;28;43447;-71
2023/01/17 12:45:20;;;;;;;1.73;1.73;;;16.80;65.90;;;;;;5047421;28;43515;-71
2023/01/17 12:47:50;;;;;;;1.90;1.83;;;16.90;66.00;;;;;;5046976;28;43749;-70
2023/01/17 12:50:21;;;;;;;1.67;1.60;;;16.90;65.60;;;;;;5045108;28;45360;-71
2023/01/17 12:52:53;;;;;;;1.80;1.80;;;17.00;65.50;;;;;;5046824;28;43552;-70
2023/01/17 12:55:24;;;;;;;1.63;1.63;;;17.00;65.50;;;;;;5042543;28;43506;-71
2023/01/17 12:57:55;;;;;;;1.90;1.80;;;17.00;65.60;;;;;;5044185;28;46077;-70
2023/01/17 13:00:25;;;;;;;1.90;1.90;;;16.90;65.50;;;;;;5045668;28;43473;-71
2023/01/17 13:02:55;;;;;;;2.00;2.00;;;16.90;65.10;;;;;;5046516;28;43357;-72
2023/01/17 13:05:24;;;;;;;1.80;1.80;;;16.90;65.40;;;;;;5046931;28;43486;-70
2023/01/17 13:07:55;;;;;;;1.90;1.90;;;16.90;65.20;;;;;;5046308;28;45131;-72
2023/01/17 13:10:26;;;;;;;1.70;1.70;;;16.90;65.30;;;;;;5046238;28;43928;-72
2023/01/17 13:12:57;;;;;;;1.50;1.50;;;16.90;65.40;;;;;;5044782;28;44056;-70
2023/01/17 13:15:27;;;;;;;1.70;1.70;;;16.90;65.60;;;;;;5045252;28;43600;-72
2023/01/17 13:17:59;;;;;;;1.60;1.60;;;16.90;65.10;;;;;;5044469;28;46108;-70
2023/01/17 13:20:30;;;;;;;1.80;1.80;;;16.90;65.00;;;;;;5043793;28;43470;-72
2023/01/17 13:23:03;;;;;;;1.90;1.90;;;17.00;64.90;;;;;;5043964;28;43443;-70
2023/01/17 13:25:35;;;;;;;1.70;1.70;;;17.00;64.80;;;;;;5046697;28;43538;-71
2023/01/17 13:28:17;;;;;;;1.70;1.70;;;17.00;64.80;;;;;;5046631;28;43598;-70
2023/01/17 13:30:55;;;;;;;1.80;1.80;;;17.00;64.90;;;;;;5045310;28;43432;-70
2023/01/17 13:33:29;;;;;;;1.60;1.60;;;17.00;65.20;;;;;;5057739;28;43517;-72
2023/01/17 13:36:02;;;;;;;1.40;1.40;;;17.00;65.10;;;;;;5080122;28;43935;-71
2023/01/17 13:38:34;;;;;;;1.60;1.60;;;17.00;65.20;;;;;;5077165;28;43598;-71
2023/01/17 13:41:06;;;;;;;1.50;1.50;;;17.00;65.20;;;;;;5066863;28;43599;-72
2023/01/17 13:43:38;;;;;;;1.73;1.70;;;17.00;65.20;;;;;;5080353;28;43477;-71
2023/01/17 13:46:06;;;;;;;1.80;1.80;;;16.90;65.20;;;;;;5071486;28;43585;-70
2023/01/17 13:48:36;;;;;;;1.33;1.33;;;16.90;65.40;;;;;;5081127;27;43713;-72
2023/01/17 13:51:04;;;;;;;1.50;1.50;;;16.90;65.40;;;;;;5066292;28;44175;-70
2023/01/17 13:53:57;;;;;;;1.70;1.70;;;16.90;65.50;;;;;;5075396;28;43415;-72
2023/01/17 13:56:43;;;;;;;1.50;1.50;;;16.90;65.50;;;;;;5079357;28;43384;-71
2023/01/17 13:59:28;;;;;;;1.67;1.67;;;16.90;65.50;;;;;;5068319;28;45232;-71
2023/01/17 14:01:56;;;;;;;1.60;1.60;;;16.90;65.60;;;;;;5072619;28;45044;-70
2023/01/17 14:04:24;;;;;;;1.80;1.80;;;16.90;65.70;;;;;;5077371;27;43819;-71
2023/01/17 14:06:54;;;;;;;1.70;1.70;;;16.90;65.80;;;;;;5070080;28;44040;-71
2023/01/17 14:09:25;;;;;;;1.70;1.70;;;16.90;65.50;;;;;;5080145;28;43667;-71
2023/01/17 14:11:58;;;;;;;1.40;1.40;;;17.00;65.20;;;;;;5080693;28;43518;-71
2023/01/17 14:14:49;;;;;;;1.60;1.60;;;17.10;65.00;;;;;;5076780;27;43986;-71
2023/01/17 14:17:36;;;;;;;1.50;1.40;;;17.10;65.10;;;;;;5077732;28;44003;-71
2023/01/17 14:20:56;;;;;;;1.43;1.43;;;17.00;65.10;;;;;;5080362;28;43907;-70
2023/01/17 14:23:50;;;;;;;1.63;1.63;;;17.00;65.20;;;;;;5077451;28;45120;-70
2023/01/17 14:26:45;;;;;;;1.40;1.40;;;17.00;65.30;;;;;;5070363;28;43501;-72
2023/01/17 14:29:51;;;;;;;1.90;1.80;;;17.00;65.20;;;;;;5067418;28;43484;-72
2023/01/17 14:32:21;;;;;;;1.60;1.60;;;16.90;65.30;;;;;;5074579;28;43673;-71
2023/01/17 14:34:50;;;;;;;1.73;1.70;;;16.90;65.40;;;;;;5078939;28;43885;-70